createdAt,value
2024-05-09T00:00:18.472Z,70.87
2024-05-09T00:00:57.549Z,70.68
2024-05-09T00:01:29.034Z,70.79
2024-05-09T00:02:00.449Z,70.82
2024-05-09T00:02:31.901Z,70.80
2024-05-09T00:03:05.784Z,70.74
2024-05-09T00:03:39.933Z,70.76
2024-05-09T00:04:11.426Z,70.68
2024-05-09T00:04:42.993Z,70.74
2024-05-09T00:05:14.648Z,70.85
2024-05-09T00:05:46.207Z,70.85
2024-05-09T00:06:17.801Z,70.85
2024-05-09T00:06:49.221Z,70.83
2024-05-09T00:07:20.631Z,70.77
2024-05-09T00:07:52.068Z,70.81
2024-05-09T00:08:23.631Z,70.79
2024-05-09T00:08:55.064Z,70.56
2024-05-09T00:09:26.484Z,70.51
2024-05-09T00:09:57.895Z,69.78
2024-05-09T00:10:35.954Z,69.37
2024-05-09T00:11:12.560Z,69.62
2024-05-09T00:11:44.118Z,69.97
2024-05-09T00:12:16.610Z,70.28
2024-05-09T00:12:48.054Z,70.41
2024-05-09T00:13:19.466Z,70.29
2024-05-09T00:13:50.962Z,70.05
2024-05-09T00:14:22.482Z,70.29
2024-05-09T00:14:53.912Z,70.54
2024-05-09T00:15:25.301Z,70.69
2024-05-09T00:15:58.891Z,70.80
2024-05-09T00:16:30.298Z,70.87
2024-05-09T00:17:01.735Z,70.84
2024-05-09T00:17:33.282Z,70.22
2024-05-09T00:18:06.195Z,69.54
2024-05-09T00:18:38.012Z,69.97
2024-05-09T00:19:09.619Z,70.43
2024-05-09T00:19:42.497Z,70.68
2024-05-09T00:20:20.254Z,70.58
2024-05-09T00:20:55.819Z,70.56
2024-05-09T00:21:27.213Z,70.71
2024-05-09T00:21:58.644Z,70.79
2024-05-09T00:22:30.936Z,70.62
2024-05-09T00:23:02.411Z,70.56
2024-05-09T00:23:34.058Z,70.47
2024-05-09T00:24:05.543Z,70.26
2024-05-09T00:24:36.956Z,70.12
2024-05-09T00:25:08.396Z,70.01
2024-05-09T00:25:43.150Z,69.82
2024-05-09T00:26:16.698Z,69.79
2024-05-09T00:26:48.103Z,69.72
2024-05-09T00:27:19.715Z,69.59
2024-05-09T00:27:51.142Z,69.64
2024-05-09T00:28:24.570Z,70.04
2024-05-09T00:28:56.050Z,69.07
2024-05-09T00:29:27.624Z,68.50
2024-05-09T00:29:59.205Z,67.92
2024-05-09T00:30:35.032Z,67.41
2024-05-09T00:31:08.174Z,67.23
2024-05-09T00:31:39.586Z,67.01
2024-05-09T00:32:11.231Z,66.58
2024-05-09T00:32:42.786Z,66.19
2024-05-09T00:33:14.531Z,66.93
2024-05-09T00:33:46.242Z,66.98
2024-05-09T00:34:17.822Z,65.72
2024-05-09T00:34:49.279Z,63.94
2024-05-09T00:35:20.682Z,63.60
2024-05-09T00:35:52.099Z,64.00
2024-05-09T00:36:23.510Z,64.25
2024-05-09T00:36:54.925Z,64.09
2024-05-09T00:37:26.333Z,63.73
2024-05-09T00:37:57.881Z,63.86
2024-05-09T00:38:29.328Z,63.99
2024-05-09T00:39:00.761Z,63.66
2024-05-09T00:39:32.162Z,63.26
2024-05-09T00:40:05.805Z,62.81
2024-05-09T00:40:41.440Z,62.76
2024-05-09T00:41:16.330Z,61.51
2024-05-09T00:41:48.517Z,61.52
2024-05-09T00:42:19.927Z,61.76
2024-05-09T00:42:51.334Z,61.47
2024-05-09T00:43:22.751Z,60.55
2024-05-09T00:43:54.195Z,60.23
2024-05-09T00:44:25.703Z,59.94
2024-05-09T00:44:57.199Z,59.87
2024-05-09T00:45:28.611Z,60.00
2024-05-09T00:46:00.851Z,60.13
2024-05-09T00:46:32.349Z,60.04
2024-05-09T00:47:04.651Z,59.99
2024-05-09T00:47:36.280Z,59.88
2024-05-09T00:48:11.602Z,59.72
2024-05-09T00:48:44.435Z,59.79
2024-05-09T00:49:15.998Z,59.88
2024-05-09T00:49:47.544Z,59.82
2024-05-09T00:50:22.913Z,59.99
2024-05-09T00:51:02.680Z,60.16
2024-05-09T00:51:34.762Z,60.12
2024-05-09T00:52:06.542Z,60.20
2024-05-09T00:52:38.927Z,60.00
2024-05-09T00:53:12.825Z,59.89
2024-05-09T00:53:45.187Z,59.87
2024-05-09T00:54:18.711Z,59.85
2024-05-09T00:54:50.265Z,59.66
2024-05-09T00:55:22.767Z,59.53
2024-05-09T00:55:56.952Z,59.41
2024-05-09T00:56:28.513Z,59.34
2024-05-09T00:57:02.249Z,59.39
2024-05-09T00:57:33.670Z,59.51
2024-05-09T00:58:08.751Z,59.60
2024-05-09T00:58:41.729Z,59.59
2024-05-09T00:59:13.201Z,59.49
2024-05-09T00:59:45.266Z,59.39
2024-05-09T01:00:26.214Z,59.47
2024-05-09T01:01:05.261Z,59.46
2024-05-09T01:01:36.802Z,59.45
2024-05-09T01:02:08.848Z,59.35
2024-05-09T01:02:40.355Z,59.40
2024-05-09T01:03:13.744Z,59.36
2024-05-09T01:03:47.936Z,59.24
2024-05-09T01:04:20.972Z,58.86
2024-05-09T01:04:52.501Z,58.85
2024-05-09T01:05:24.012Z,58.94
2024-05-09T01:05:55.613Z,59.07
2024-05-09T01:06:27.333Z,59.16
2024-05-09T01:06:58.810Z,59.01
2024-05-09T01:07:30.250Z,58.76
2024-05-09T01:08:01.907Z,58.79
2024-05-09T01:08:33.448Z,58.87
2024-05-09T01:09:05.295Z,58.95
2024-05-09T01:09:36.687Z,59.10
2024-05-09T01:10:14.104Z,59.33
2024-05-09T01:10:52.443Z,59.42
2024-05-09T01:11:24.120Z,59.43
2024-05-09T01:11:55.652Z,59.40
2024-05-09T01:12:27.252Z,59.50
2024-05-09T01:12:58.767Z,59.49
2024-05-09T01:13:30.168Z,59.51
2024-05-09T01:14:01.685Z,59.47
2024-05-09T01:14:38.695Z,59.51
2024-05-09T01:15:10.111Z,59.54
2024-05-09T01:15:42.360Z,59.60
2024-05-09T01:16:13.826Z,59.69
2024-05-09T01:16:45.253Z,59.69
2024-05-09T01:17:16.868Z,59.69
2024-05-09T01:17:48.563Z,59.83
2024-05-09T01:18:20.558Z,59.94
2024-05-09T01:18:52.247Z,60.05
2024-05-09T01:19:29.217Z,60.16
2024-05-09T01:20:00.775Z,60.26
2024-05-09T01:20:40.481Z,60.42
2024-05-09T01:21:14.857Z,60.46
2024-05-09T01:21:46.342Z,60.53
2024-05-09T01:22:18.216Z,60.46
2024-05-09T01:22:51.355Z,60.45
2024-05-09T01:23:22.783Z,60.50
2024-05-09T01:23:54.191Z,60.54
2024-05-09T01:24:25.702Z,60.62
2024-05-09T01:24:57.117Z,60.71
2024-05-09T01:25:28.547Z,60.80
2024-05-09T01:25:59.990Z,60.86
2024-05-09T01:26:31.443Z,60.98
2024-05-09T01:27:03.036Z,61.07
2024-05-09T01:27:34.436Z,61.13
2024-05-09T01:28:06.161Z,61.17
2024-05-09T01:28:37.817Z,61.20
2024-05-09T01:29:09.262Z,61.32
2024-05-09T01:29:40.674Z,61.39
2024-05-09T01:30:17.299Z,61.40
2024-05-09T01:30:52.558Z,61.34
2024-05-09T01:31:23.988Z,61.46
2024-05-09T01:31:58.025Z,61.55
2024-05-09T01:32:29.634Z,61.46
2024-05-09T01:33:01.714Z,61.38
2024-05-09T01:33:33.712Z,61.42
2024-05-09T01:34:05.215Z,61.49
2024-05-09T01:34:36.603Z,61.59
2024-05-09T01:35:08.042Z,61.70
2024-05-09T01:35:39.660Z,61.82
2024-05-09T01:36:11.218Z,61.96
2024-05-09T01:36:42.800Z,61.97
2024-05-09T01:37:14.237Z,61.94
2024-05-09T01:37:45.666Z,61.91
2024-05-09T01:38:18.676Z,61.85
2024-05-09T01:38:50.077Z,61.82
2024-05-09T01:39:21.633Z,61.89
2024-05-09T01:39:53.032Z,61.91
2024-05-09T01:40:33.554Z,61.94
2024-05-09T01:41:09.207Z,62.04
2024-05-09T01:41:40.638Z,62.11
2024-05-09T01:42:12.079Z,62.33
2024-05-09T01:42:43.599Z,62.04
2024-05-09T01:43:15.296Z,61.41
2024-05-09T01:43:46.728Z,61.21
2024-05-09T01:44:18.154Z,61.09
2024-05-09T01:44:49.548Z,61.10
2024-05-09T01:45:21.036Z,61.24
2024-05-09T01:45:52.487Z,61.21
2024-05-09T01:46:23.909Z,61.04
2024-05-09T01:46:55.377Z,60.96
2024-05-09T01:47:27.225Z,60.85
2024-05-09T01:47:59.126Z,60.07
2024-05-09T01:48:31.054Z,59.73
2024-05-09T01:49:03.390Z,59.55
2024-05-09T01:49:36.140Z,59.42
2024-05-09T01:50:10.655Z,59.47
2024-05-09T01:50:43.349Z,59.49
2024-05-09T01:51:15.125Z,59.46
2024-05-09T01:51:46.573Z,59.52
2024-05-09T01:52:17.988Z,59.51
2024-05-09T01:52:49.432Z,59.53
2024-05-09T01:53:20.889Z,59.55
2024-05-09T01:53:53.328Z,59.46
2024-05-09T01:54:24.742Z,59.49
2024-05-09T01:54:56.147Z,59.59
2024-05-09T01:55:27.568Z,59.37
2024-05-09T01:55:59.075Z,59.41
2024-05-09T01:56:30.826Z,59.54
2024-05-09T01:57:02.385Z,59.51
2024-05-09T01:57:33.777Z,59.25
2024-05-09T01:58:05.300Z,59.00
2024-05-09T01:58:37.593Z,59.10
2024-05-09T01:59:09.374Z,59.18
2024-05-09T01:59:40.832Z,59.22
2024-05-09T02:00:15.727Z,59.12
2024-05-09T02:00:50.146Z,58.99
2024-05-09T02:01:21.590Z,58.80
2024-05-09T02:01:56.898Z,58.82
2024-05-09T02:02:29.463Z,58.76
2024-05-09T02:03:01.195Z,58.00
2024-05-09T02:03:32.930Z,57.83
2024-05-09T02:04:04.715Z,57.81
2024-05-09T02:04:36.379Z,57.84
2024-05-09T02:05:07.884Z,57.82
2024-05-09T02:05:39.531Z,57.92
2024-05-09T02:06:11.399Z,58.13
2024-05-09T02:06:42.957Z,58.25
2024-05-09T02:07:14.846Z,57.98
2024-05-09T02:07:46.299Z,57.71
2024-05-09T02:08:19.553Z,57.62
2024-05-09T02:08:51.171Z,57.67
2024-05-09T02:09:22.716Z,57.63
2024-05-09T02:09:54.109Z,57.67
2024-05-09T02:10:32.062Z,57.59
2024-05-09T02:11:04.664Z,57.48
2024-05-09T02:11:43.205Z,57.62
2024-05-09T02:12:14.920Z,57.88
2024-05-09T02:12:46.443Z,57.72
2024-05-09T02:13:18.014Z,57.68
2024-05-09T02:13:49.499Z,58.08
2024-05-09T02:14:21.091Z,58.27
2024-05-09T02:14:52.617Z,58.49
2024-05-09T02:15:24.015Z,58.41
2024-05-09T02:15:55.431Z,58.16
2024-05-09T02:16:26.848Z,57.87
2024-05-09T02:16:58.328Z,57.28
2024-05-09T02:17:29.880Z,57.18
2024-05-09T02:18:01.551Z,57.26
2024-05-09T02:18:33.051Z,56.91
2024-05-09T02:19:05.176Z,56.45
2024-05-09T02:19:36.670Z,56.48
2024-05-09T02:20:13.145Z,56.42
2024-05-09T02:20:47.996Z,56.32
2024-05-09T02:21:19.451Z,56.24
2024-05-09T02:21:50.859Z,56.37
2024-05-09T02:22:22.327Z,56.29
2024-05-09T02:22:53.757Z,55.74
2024-05-09T02:23:25.252Z,55.82
2024-05-09T02:23:56.647Z,55.83
2024-05-09T02:24:28.167Z,55.73
2024-05-09T02:24:59.782Z,55.61
2024-05-09T02:25:31.606Z,55.39
2024-05-09T02:26:03.172Z,55.27
2024-05-09T02:26:34.710Z,55.27
2024-05-09T02:27:06.206Z,55.27
2024-05-09T02:27:37.604Z,55.44
2024-05-09T02:28:09.077Z,55.70
2024-05-09T02:28:40.484Z,55.67
2024-05-09T02:29:11.937Z,54.75
2024-05-09T02:29:44.285Z,54.65
2024-05-09T02:30:22.858Z,55.17
2024-05-09T02:31:01.767Z,55.36
2024-05-09T02:31:33.168Z,55.14
2024-05-09T02:32:04.874Z,54.89
2024-05-09T02:32:36.404Z,54.83
2024-05-09T02:33:09.560Z,55.17
2024-05-09T02:33:42.880Z,55.41
2024-05-09T02:34:14.512Z,55.22
2024-05-09T02:34:45.979Z,55.21
2024-05-09T02:35:17.438Z,55.39
2024-05-09T02:35:48.845Z,55.29
2024-05-09T02:36:21.371Z,55.12
2024-05-09T02:36:55.001Z,55.12
2024-05-09T02:37:26.406Z,55.12
2024-05-09T02:37:57.837Z,54.88
2024-05-09T02:38:29.301Z,54.77
2024-05-09T02:39:00.716Z,54.83
2024-05-09T02:39:32.361Z,54.52
2024-05-09T02:40:05.545Z,54.47
2024-05-09T02:40:39.072Z,54.53
2024-05-09T02:41:11.515Z,54.53
2024-05-09T02:41:42.970Z,54.57
2024-05-09T02:42:14.381Z,54.67
2024-05-09T02:42:46.059Z,54.69
2024-05-09T02:43:17.484Z,55.04
2024-05-09T02:43:48.950Z,55.30
2024-05-09T02:44:20.410Z,55.24
2024-05-09T02:44:51.883Z,54.81
2024-05-09T02:45:23.766Z,54.46
2024-05-09T02:45:55.162Z,54.56
2024-05-09T02:46:26.587Z,54.66
2024-05-09T02:46:58.107Z,54.66
2024-05-09T02:47:29.675Z,54.22
2024-05-09T02:48:01.967Z,54.17
2024-05-09T02:48:33.834Z,54.34
2024-05-09T02:49:05.345Z,54.62
2024-05-09T02:49:37.038Z,54.50
2024-05-09T02:50:08.630Z,54.16
2024-05-09T02:50:40.466Z,53.95
2024-05-09T02:51:12.137Z,54.12
2024-05-09T02:51:43.609Z,54.20
2024-05-09T02:52:17.142Z,54.26
2024-05-09T02:52:48.585Z,54.39
2024-05-09T02:53:20.037Z,54.49
2024-05-09T02:53:51.473Z,54.60
2024-05-09T02:54:22.894Z,54.73
2024-05-09T02:54:54.329Z,54.68
2024-05-09T02:55:25.718Z,54.49
2024-05-09T02:55:57.192Z,54.49
2024-05-09T02:56:28.849Z,54.61
2024-05-09T02:57:00.437Z,54.89
2024-05-09T02:57:31.865Z,54.87
2024-05-09T02:58:03.449Z,54.82
2024-05-09T02:58:34.840Z,54.62
2024-05-09T02:59:06.300Z,54.48
2024-05-09T02:59:37.749Z,54.42
2024-05-09T03:00:18.399Z,54.43
2024-05-09T03:00:53.861Z,54.53
2024-05-09T03:01:25.381Z,54.55
2024-05-09T03:01:56.954Z,54.42
2024-05-09T03:02:30.663Z,54.23
2024-05-09T03:03:02.448Z,54.28
2024-05-09T03:03:34.203Z,54.37
2024-05-09T03:04:06.084Z,54.38
2024-05-09T03:04:37.745Z,54.14
2024-05-09T03:05:09.676Z,54.07
2024-05-09T03:05:42.599Z,54.00
2024-05-09T03:06:14.141Z,54.15
2024-05-09T03:06:45.553Z,54.22
2024-05-09T03:07:19.729Z,54.38
2024-05-09T03:07:51.576Z,54.53
2024-05-09T03:08:23.080Z,54.56
2024-05-09T03:08:54.540Z,54.61
2024-05-09T03:09:26.155Z,54.64
2024-05-09T03:09:57.560Z,54.79
2024-05-09T03:10:34.926Z,54.92
2024-05-09T03:11:08.583Z,55.00
2024-05-09T03:11:40.313Z,55.02
2024-05-09T03:12:12.203Z,55.26
2024-05-09T03:12:43.686Z,55.13
2024-05-09T03:13:16.189Z,55.10
2024-05-09T03:13:53.277Z,55.10
2024-05-09T03:14:24.869Z,55.25
2024-05-09T03:14:56.360Z,55.22
2024-05-09T03:15:31.065Z,55.39
2024-05-09T03:16:02.566Z,56.03
2024-05-09T03:16:40.207Z,55.67
2024-05-09T03:17:11.747Z,54.36
2024-05-09T03:17:43.561Z,54.03
2024-05-09T03:18:16.084Z,54.55
2024-05-09T03:18:47.635Z,54.81
2024-05-09T03:19:19.169Z,55.30
2024-05-09T03:19:50.644Z,55.81
2024-05-09T03:20:27.368Z,55.72
2024-05-09T03:21:02.364Z,55.35
2024-05-09T03:21:39.646Z,54.91
2024-05-09T03:22:11.543Z,55.23
2024-05-09T03:22:42.973Z,55.05
2024-05-09T03:23:14.407Z,54.74
2024-05-09T03:23:45.889Z,54.45
2024-05-09T03:24:17.304Z,54.39
2024-05-09T03:24:48.718Z,54.43
2024-05-09T03:25:20.111Z,54.42
2024-05-09T03:25:53.063Z,54.53
2024-05-09T03:26:24.529Z,54.57
2024-05-09T03:26:55.949Z,54.55
2024-05-09T03:27:27.356Z,54.67
2024-05-09T03:27:58.810Z,55.02
2024-05-09T03:28:30.229Z,55.22
2024-05-09T03:29:01.834Z,55.33
2024-05-09T03:29:33.467Z,55.26
2024-05-09T03:30:07.456Z,54.81
2024-05-09T03:30:42.296Z,52.27
2024-05-09T03:31:17.486Z,52.50
2024-05-09T03:31:49.067Z,52.36
2024-05-09T03:32:20.580Z,52.36
2024-05-09T03:32:52.071Z,52.59
2024-05-09T03:33:24.031Z,52.96
2024-05-09T03:33:55.762Z,53.11
2024-05-09T03:34:27.297Z,53.19
2024-05-09T03:34:58.760Z,53.03
2024-05-09T03:35:30.296Z,52.68
2024-05-09T03:36:03.199Z,52.26
2024-05-09T03:36:34.584Z,52.24
2024-05-09T03:37:06.047Z,51.64
2024-05-09T03:37:37.446Z,51.39
2024-05-09T03:38:09.180Z,51.27
2024-05-09T03:38:40.707Z,50.77
2024-05-09T03:39:12.275Z,50.55
2024-05-09T03:39:43.805Z,50.74
2024-05-09T03:40:21.017Z,51.14
2024-05-09T03:40:57.567Z,51.64
2024-05-09T03:41:29.101Z,51.31
2024-05-09T03:42:00.663Z,50.35
2024-05-09T03:42:32.070Z,50.61
2024-05-09T03:43:03.632Z,49.40
2024-05-09T03:43:35.042Z,49.68
2024-05-09T03:44:06.943Z,50.36
2024-05-09T03:44:38.355Z,50.52
2024-05-09T03:45:09.763Z,49.35
2024-05-09T03:45:42.245Z,48.98
2024-05-09T03:46:13.673Z,49.20
2024-05-09T03:46:45.168Z,49.15
2024-05-09T03:47:16.706Z,49.16
2024-05-09T03:47:48.497Z,49.26
2024-05-09T03:48:20.379Z,49.30
2024-05-09T03:48:51.924Z,49.18
2024-05-09T03:49:23.409Z,49.22
2024-05-09T03:49:54.876Z,49.21
2024-05-09T03:50:33.568Z,49.12
2024-05-09T03:51:07.371Z,49.17
2024-05-09T03:51:38.914Z,49.28
2024-05-09T03:52:10.451Z,49.34
2024-05-09T03:52:41.858Z,49.87
2024-05-09T03:53:14.291Z,49.98
2024-05-09T03:53:45.910Z,49.29
2024-05-09T03:54:17.317Z,49.33
2024-05-09T03:54:48.736Z,50.10
2024-05-09T03:55:20.149Z,51.06
2024-05-09T03:55:51.567Z,50.00
2024-05-09T03:56:23.438Z,49.87
2024-05-09T03:56:54.902Z,50.55
2024-05-09T03:57:26.316Z,50.28
2024-05-09T03:57:57.727Z,48.99
2024-05-09T03:58:29.138Z,48.58
2024-05-09T03:59:00.624Z,48.85
2024-05-09T03:59:32.179Z,48.81
2024-05-09T04:00:05.552Z,49.43
2024-05-09T04:00:39.462Z,48.81
2024-05-09T04:01:11.772Z,47.93
2024-05-09T04:01:43.312Z,47.79
2024-05-09T04:02:14.949Z,47.76
2024-05-09T04:02:47.271Z,47.73
2024-05-09T04:03:19.319Z,47.62
2024-05-09T04:03:51.213Z,47.66
2024-05-09T04:04:22.769Z,47.72
2024-05-09T04:04:54.289Z,47.88
2024-05-09T04:05:25.956Z,48.12
2024-05-09T04:05:57.520Z,48.26
2024-05-09T04:06:28.919Z,48.09
2024-05-09T04:07:00.354Z,48.06
2024-05-09T04:07:32.255Z,48.44
2024-05-09T04:08:04.010Z,48.43
2024-05-09T04:08:35.749Z,48.16
2024-05-09T04:09:07.235Z,48.44
2024-05-09T04:09:38.647Z,48.53
2024-05-09T04:10:20.568Z,48.02
2024-05-09T04:10:55.659Z,47.68
2024-05-09T04:11:27.135Z,47.69
2024-05-09T04:11:58.781Z,47.77
2024-05-09T04:12:30.396Z,48.01
2024-05-09T04:13:03.058Z,48.20
2024-05-09T04:13:34.731Z,48.25
2024-05-09T04:14:06.304Z,48.08
2024-05-09T04:14:37.789Z,47.99
2024-05-09T04:15:12.849Z,47.91
2024-05-09T04:15:44.880Z,48.16
2024-05-09T04:16:16.318Z,48.33
2024-05-09T04:16:47.767Z,48.26
2024-05-09T04:17:21.476Z,48.08
2024-05-09T04:17:53.224Z,47.96
2024-05-09T04:18:24.830Z,47.76
2024-05-09T04:18:56.367Z,47.78
2024-05-09T04:19:27.937Z,48.00
2024-05-09T04:19:59.395Z,47.48
2024-05-09T04:20:37.822Z,47.03
2024-05-09T04:21:11.810Z,47.04
2024-05-09T04:21:43.219Z,46.96
2024-05-09T04:22:14.636Z,46.78
2024-05-09T04:22:46.184Z,46.75
2024-05-09T04:23:17.696Z,47.01
2024-05-09T04:23:49.297Z,46.90
2024-05-09T04:24:20.677Z,46.68
2024-05-09T04:24:52.115Z,46.47
2024-05-09T04:25:23.507Z,46.64
2024-05-09T04:25:55.113Z,47.02
2024-05-09T04:26:26.613Z,46.79
2024-05-09T04:26:58.057Z,46.52
2024-05-09T04:27:29.477Z,46.29
2024-05-09T04:28:00.960Z,46.65
2024-05-09T04:28:32.362Z,46.24
2024-05-09T04:29:03.807Z,46.06
2024-05-09T04:29:36.360Z,46.18
2024-05-09T04:30:15.443Z,46.43
2024-05-09T04:30:53.104Z,46.66
2024-05-09T04:31:24.508Z,46.51
2024-05-09T04:31:56.008Z,46.35
2024-05-09T04:32:27.695Z,46.24
2024-05-09T04:32:59.332Z,46.08
2024-05-09T04:33:31.020Z,46.06
2024-05-09T04:34:02.996Z,45.90
2024-05-09T04:34:34.901Z,45.51
2024-05-09T04:35:06.375Z,45.42
2024-05-09T04:35:37.899Z,45.30
2024-05-09T04:36:09.391Z,45.19
2024-05-09T04:36:43.133Z,45.23
2024-05-09T04:37:16.299Z,45.05
2024-05-09T04:37:48.378Z,44.83
2024-05-09T04:38:19.887Z,44.75
2024-05-09T04:38:51.465Z,44.61
2024-05-09T04:39:22.879Z,44.64
2024-05-09T04:39:54.314Z,44.40
2024-05-09T04:40:33.000Z,44.48
2024-05-09T04:41:07.249Z,44.58
2024-05-09T04:41:38.703Z,44.28
2024-05-09T04:42:10.145Z,44.07
2024-05-09T04:42:41.577Z,44.13
2024-05-09T04:43:18.237Z,44.33
2024-05-09T04:43:49.831Z,44.11
2024-05-09T04:44:21.301Z,44.41
2024-05-09T04:44:54.180Z,44.57
2024-05-09T04:45:27.060Z,44.53
2024-05-09T04:45:58.449Z,44.17
2024-05-09T04:46:29.861Z,43.78
2024-05-09T04:47:01.354Z,43.90
2024-05-09T04:47:32.896Z,44.00
2024-05-09T04:48:04.990Z,44.10
2024-05-09T04:48:36.624Z,44.07
2024-05-09T04:49:08.221Z,43.73
2024-05-09T04:49:41.307Z,44.15
2024-05-09T04:50:17.890Z,44.11
2024-05-09T04:50:56.873Z,43.79
2024-05-09T04:51:28.292Z,44.09
2024-05-09T04:51:59.701Z,44.30
2024-05-09T04:52:31.120Z,44.40
2024-05-09T04:53:02.562Z,44.37
2024-05-09T04:53:33.998Z,43.58
2024-05-09T04:54:05.628Z,43.10
2024-05-09T04:54:38.210Z,43.42
2024-05-09T04:55:09.629Z,43.51
2024-05-09T04:55:41.114Z,43.79
2024-05-09T04:56:12.685Z,44.00
2024-05-09T04:56:44.206Z,44.28
2024-05-09T04:57:15.655Z,44.68
2024-05-09T04:57:47.072Z,44.40
2024-05-09T04:58:18.480Z,44.69
2024-05-09T04:58:49.917Z,45.09
2024-05-09T04:59:21.388Z,45.28
2024-05-09T04:59:52.821Z,45.05
2024-05-09T05:00:32.009Z,44.56
2024-05-09T05:01:07.880Z,43.77
2024-05-09T05:01:39.300Z,43.53
2024-05-09T05:02:10.821Z,43.50
2024-05-09T05:02:42.395Z,43.05
2024-05-09T05:03:15.813Z,43.97
2024-05-09T05:03:48.293Z,44.04
2024-05-09T05:04:19.817Z,43.55
2024-05-09T05:04:51.417Z,43.78
2024-05-09T05:05:23.026Z,44.18
2024-05-09T05:05:54.693Z,44.41
2024-05-09T05:06:26.268Z,44.04
2024-05-09T05:06:59.752Z,44.24
2024-05-09T05:07:32.754Z,45.14
2024-05-09T05:08:05.008Z,45.64
2024-05-09T05:08:36.650Z,45.80
2024-05-09T05:09:08.106Z,45.44
2024-05-09T05:09:39.525Z,44.94
2024-05-09T05:10:15.035Z,44.55
2024-05-09T05:10:52.979Z,45.05
2024-05-09T05:11:24.589Z,45.14
2024-05-09T05:11:58.362Z,44.87
2024-05-09T05:12:48.429Z,45.00
2024-05-09T05:13:22.816Z,43.50
2024-05-09T05:13:55.085Z,42.90
2024-05-09T05:14:26.588Z,42.88
2024-05-09T05:14:58.062Z,42.32
2024-05-09T05:15:29.462Z,42.53
2024-05-09T05:16:01.183Z,42.64
2024-05-09T05:16:32.597Z,42.59
2024-05-09T05:17:04.189Z,42.68
2024-05-09T05:17:35.826Z,42.60
2024-05-09T05:18:07.515Z,42.66
2024-05-09T05:18:39.095Z,42.72
2024-05-09T05:19:12.709Z,42.91
2024-05-09T05:19:45.899Z,42.99
2024-05-09T05:20:27.013Z,42.47
2024-05-09T05:21:02.720Z,42.42
2024-05-09T05:21:34.146Z,42.04
2024-05-09T05:22:05.588Z,41.88
2024-05-09T05:22:36.972Z,42.21
2024-05-09T05:23:14.039Z,42.41
2024-05-09T05:23:45.629Z,42.05
2024-05-09T05:24:17.024Z,42.19
2024-05-09T05:24:48.437Z,41.93
2024-05-09T05:25:19.844Z,41.96
2024-05-09T05:25:51.688Z,42.24
2024-05-09T05:26:23.245Z,42.33
2024-05-09T05:26:54.644Z,42.34
2024-05-09T05:27:26.248Z,42.42
2024-05-09T05:27:57.637Z,42.61
2024-05-09T05:28:29.104Z,42.47
2024-05-09T05:29:00.555Z,42.38
2024-05-09T05:29:32.079Z,42.29
2024-05-09T05:30:07.364Z,42.29
2024-05-09T05:30:41.646Z,42.14
2024-05-09T05:31:16.219Z,42.06
2024-05-09T05:31:47.744Z,41.98
2024-05-09T05:32:19.470Z,42.37
2024-05-09T05:32:51.187Z,42.75
2024-05-09T05:33:23.587Z,42.06
2024-05-09T05:33:55.261Z,41.76
2024-05-09T05:34:26.685Z,41.57
2024-05-09T05:34:58.144Z,41.33
2024-05-09T05:35:29.813Z,41.27
2024-05-09T05:36:01.329Z,41.08
2024-05-09T05:36:32.744Z,40.83
2024-05-09T05:37:04.166Z,40.74
2024-05-09T05:37:35.555Z,40.46
2024-05-09T05:38:08.196Z,40.43
2024-05-09T05:38:39.742Z,40.58
2024-05-09T05:39:11.168Z,40.65
2024-05-09T05:39:42.578Z,40.57
2024-05-09T05:40:24.643Z,40.41
2024-05-09T05:40:59.691Z,40.64
2024-05-09T05:41:31.129Z,40.77
2024-05-09T05:42:02.711Z,40.73
2024-05-09T05:42:34.149Z,40.75
2024-05-09T05:43:10.143Z,41.03
2024-05-09T05:43:41.877Z,40.98
2024-05-09T05:44:14.722Z,40.84
2024-05-09T05:44:46.148Z,40.06
2024-05-09T05:45:17.536Z,39.56
2024-05-09T05:45:48.965Z,39.61
2024-05-09T05:46:20.364Z,39.54
2024-05-09T05:46:51.809Z,39.45
2024-05-09T05:47:23.608Z,39.65
2024-05-09T05:47:55.359Z,39.56
2024-05-09T05:48:27.114Z,39.76
2024-05-09T05:48:58.839Z,40.03
2024-05-09T05:49:30.483Z,40.23
2024-05-09T05:50:02.284Z,40.36
2024-05-09T05:50:37.007Z,40.07
2024-05-09T05:51:09.930Z,39.78
2024-05-09T05:51:41.336Z,39.64
2024-05-09T05:52:12.759Z,39.68
2024-05-09T05:52:44.241Z,39.89
2024-05-09T05:53:15.963Z,39.83
2024-05-09T05:53:47.492Z,39.55
2024-05-09T05:54:18.911Z,39.67
2024-05-09T05:54:53.313Z,39.99
2024-05-09T05:55:24.728Z,40.20
2024-05-09T05:55:56.151Z,40.22
2024-05-09T05:56:27.699Z,39.85
2024-05-09T05:56:59.459Z,39.94
2024-05-09T05:57:30.897Z,40.31
2024-05-09T05:58:02.430Z,40.56
2024-05-09T05:58:33.854Z,40.63
2024-05-09T05:59:05.371Z,40.61
2024-05-09T05:59:36.959Z,40.60
2024-05-09T06:00:09.877Z,40.56
2024-05-09T06:00:42.530Z,40.19
2024-05-09T06:01:14.480Z,40.66
2024-05-09T06:01:46.474Z,40.42
2024-05-09T06:02:18.083Z,40.08
2024-05-09T06:02:49.661Z,40.09
2024-05-09T06:03:21.217Z,39.98
2024-05-09T06:03:52.765Z,40.00
2024-05-09T06:04:24.324Z,40.23
2024-05-09T06:04:55.822Z,40.37
2024-05-09T06:05:27.843Z,40.49
2024-05-09T06:06:01.770Z,40.84
2024-05-09T06:06:33.213Z,40.71
2024-05-09T06:07:07.821Z,40.39
2024-05-09T06:07:39.224Z,40.08
2024-05-09T06:08:11.039Z,40.13
2024-05-09T06:08:42.534Z,40.00
2024-05-09T06:09:13.986Z,39.73
2024-05-09T06:09:47.616Z,39.96
2024-05-09T06:10:25.667Z,40.14
2024-05-09T06:11:02.103Z,39.70
2024-05-09T06:11:33.580Z,39.76
2024-05-09T06:12:05.250Z,39.85
2024-05-09T06:12:38.485Z,40.34
2024-05-09T06:13:12.098Z,40.19
2024-05-09T06:13:43.840Z,39.80
2024-05-09T06:14:15.319Z,39.90
2024-05-09T06:14:46.734Z,40.16
2024-05-09T06:15:18.125Z,39.96
2024-05-09T06:15:49.565Z,40.19
2024-05-09T06:16:20.954Z,39.88
2024-05-09T06:16:54.098Z,39.72
2024-05-09T06:17:26.863Z,39.91
2024-05-09T06:17:58.618Z,40.04
2024-05-09T06:18:30.740Z,40.17
2024-05-09T06:19:02.266Z,40.53
2024-05-09T06:19:33.894Z,40.61
2024-05-09T06:20:13.242Z,40.72
2024-05-09T06:20:48.278Z,40.63
2024-05-09T06:21:19.764Z,40.49
2024-05-09T06:21:51.167Z,40.78
2024-05-09T06:22:22.580Z,40.58
2024-05-09T06:22:54.060Z,40.33
2024-05-09T06:23:25.516Z,40.37
2024-05-09T06:23:56.899Z,40.11
2024-05-09T06:24:28.369Z,40.30
2024-05-09T06:24:59.791Z,40.53
2024-05-09T06:25:34.156Z,40.47
2024-05-09T06:26:07.820Z,39.93
2024-05-09T06:26:42.503Z,39.66
2024-05-09T06:27:13.927Z,39.57
2024-05-09T06:27:45.345Z,39.69
2024-05-09T06:28:16.766Z,39.52
2024-05-09T06:28:48.286Z,39.08
2024-05-09T06:29:19.863Z,38.39
2024-05-09T06:29:51.280Z,38.17
2024-05-09T06:30:30.089Z,37.99
2024-05-09T06:31:08.492Z,37.51
2024-05-09T06:31:43.186Z,37.50
2024-05-09T06:32:15.034Z,37.42
2024-05-09T06:32:46.621Z,37.72
2024-05-09T06:33:18.432Z,37.72
2024-05-09T06:33:50.125Z,37.97
2024-05-09T06:34:21.983Z,37.97
2024-05-09T06:34:53.471Z,38.48
2024-05-09T06:35:24.950Z,38.73
2024-05-09T06:35:58.350Z,38.26
2024-05-09T06:36:29.790Z,38.13
2024-05-09T06:37:01.216Z,39.14
2024-05-09T06:37:32.669Z,39.15
2024-05-09T06:38:05.163Z,38.86
2024-05-09T06:38:36.893Z,38.74
2024-05-09T06:39:09.041Z,38.65
2024-05-09T06:39:40.449Z,38.69
2024-05-09T06:40:12.600Z,38.82
2024-05-09T06:40:46.043Z,39.28
2024-05-09T06:41:17.478Z,39.15
2024-05-09T06:41:49.230Z,39.05
2024-05-09T06:42:20.613Z,39.05
2024-05-09T06:42:52.943Z,39.09
2024-05-09T06:43:24.350Z,38.79
2024-05-09T06:43:55.787Z,38.64
2024-05-09T06:44:27.372Z,38.60
2024-05-09T06:44:58.821Z,38.30
2024-05-09T06:45:30.233Z,38.34
2024-05-09T06:46:01.654Z,38.41
2024-05-09T06:46:33.049Z,38.17
2024-05-09T06:47:04.542Z,38.57
2024-05-09T06:47:36.170Z,39.19
2024-05-09T06:48:08.460Z,38.80
2024-05-09T06:48:42.167Z,38.20
2024-05-09T06:49:14.012Z,38.01
2024-05-09T06:49:45.666Z,38.27
2024-05-09T06:50:23.829Z,37.88
2024-05-09T06:50:59.590Z,38.61
2024-05-09T06:51:30.998Z,38.63
2024-05-09T06:52:02.616Z,38.27
2024-05-09T06:52:34.042Z,38.59
2024-05-09T06:53:06.863Z,38.73
2024-05-09T06:53:39.652Z,38.44
2024-05-09T06:54:11.443Z,38.40
2024-05-09T06:54:42.842Z,38.28
2024-05-09T06:55:14.250Z,38.26
2024-05-09T06:55:45.746Z,38.37
2024-05-09T06:56:17.223Z,38.38
2024-05-09T06:56:48.658Z,38.43